Terminal Aerodrome Forecast
Issued by NWS Burlington, VT

Home | Current Version | Previous Version | Text Only | Print | Product List | Glossary On
Versions: 1 2 3 4 5 6 7 8 9 10 11 12 13 14 15 16 17 18 19 20 21
000
FTUS41 KBTV 241133
TAFBTV
TAF
KBTV 241133Z 2412/2512 36008KT 4SM -DZ BR BKN007 OVC015
      TEMPO 2413/2417 SCT007 OVC015
     FM241700 34008KT P6SM OVC015
     FM242100 33008KT P6SM OVC035
     FM250000 VRB03KT P6SM BKN060
     FM250500 00000KT P6SM SCT200=

USA.gov is the U.S. government's official web portal to all federal, state and local government web resources and services.